Terminal Aerodrome Forecast
Issued by NWS

Home | Current Version | Previous Version | Text Only | Print | Product List | Glossary On
Versions: 1 2 3 4 5 6 7 8 9 10 11 12 13 14 15 16 17 18 19 20 21 22 23 24 25 26 27 28 29 30 31 32 33 34 35 36 37 38 39 40 41 42 43 44 45 46 47 48
372
FTUS43 KAPX 222046 AAA
TAFAPN
TAF AMD
KAPN 222046Z 2221/2318 20015G29KT P6SM VCSH BKN030
     FM230100 21011G23KT P6SM VCSH BKN040
     FM230900 22011G22KT P6SM OVC023
     FM231600 24015G23KT P6SM BKN026=

USA.gov is the U.S. government's official web portal to all federal, state and local government web resources and services.